createdAt,value
2018-03-27T00:02:22.289Z,2.00
2018-03-27T00:04:50.601Z,1.90
2018-03-27T00:07:18.903Z,1.90
2018-03-27T00:09:47.220Z,1.90
2018-03-27T00:12:15.516Z,1.90
2018-03-27T00:14:43.832Z,1.90
2018-03-27T00:17:12.137Z,1.90
2018-03-27T00:19:40.453Z,1.80
2018-03-27T00:22:08.748Z,1.80
2018-03-27T00:24:41.957Z,1.70
2018-03-27T00:27:09.755Z,1.70
2018-03-27T00:29:49.896Z,1.70
2018-03-27T00:32:29.962Z,1.70
2018-03-27T00:35:10.222Z,1.60
2018-03-27T00:37:50.340Z,1.60
2018-03-27T00:40:30.663Z,1.70
2018-03-27T00:43:03.391Z,1.70
2018-03-27T00:45:31.708Z,1.70
2018-03-27T00:48:00.002Z,1.60
2018-03-27T00:50:28.321Z,1.60
2018-03-27T00:52:56.617Z,1.60
2018-03-27T00:55:24.936Z,1.60
2018-03-27T00:57:53.228Z,1.60
2018-03-27T01:00:21.541Z,1.60
2018-03-27T01:02:49.829Z,1.60
2018-03-27T01:05:18.144Z,1.60
2018-03-27T01:07:46.440Z,1.50
2018-03-27T01:10:14.775Z,1.50
2018-03-27T01:12:43.064Z,1.50
2018-03-27T01:15:11.392Z,1.50
2018-03-27T01:17:39.707Z,1.50
2018-03-27T01:20:08.005Z,1.40
2018-03-27T01:22:36.315Z,1.40
2018-03-27T01:25:04.601Z,1.30
2018-03-27T01:27:32.920Z,1.30
2018-03-27T01:30:01.212Z,1.20
2018-03-27T01:32:29.530Z,1.20
2018-03-27T01:34:57.829Z,1.10
2018-03-27T01:37:26.140Z,1.00
2018-03-27T01:39:54.432Z,1.00
2018-03-27T01:42:22.744Z,1.00
2018-03-27T01:44:51.041Z,0.90
2018-03-27T01:47:19.352Z,0.90
2018-03-27T01:49:47.640Z,0.90
2018-03-27T01:52:15.950Z,0.80
2018-03-27T01:54:44.245Z,0.80
2018-03-27T01:57:12.569Z,0.70
2018-03-27T01:59:40.860Z,0.70
2018-03-27T02:02:09.180Z,0.70
2018-03-27T02:04:37.477Z,0.70
2018-03-27T02:07:05.803Z,0.70
2018-03-27T02:09:34.092Z,0.60
2018-03-27T02:12:08.008Z,0.60
2018-03-27T02:14:41.944Z,0.60
2018-03-27T02:17:16.028Z,0.60
2018-03-27T02:19:49.911Z,0.60
2018-03-27T02:22:18.228Z,0.50
2018-03-27T02:24:46.526Z,0.50
2018-03-27T02:27:14.838Z,0.40
2018-03-27T02:29:43.129Z,0.40
2018-03-27T02:32:11.453Z,0.40
2018-03-27T02:34:39.744Z,0.30
2018-03-27T02:37:08.053Z,0.30
2018-03-27T02:39:36.345Z,0.30
2018-03-27T02:42:04.665Z,0.30
2018-03-27T02:44:32.988Z,0.20
2018-03-27T02:47:01.310Z,0.20
2018-03-27T02:49:29.610Z,0.20
2018-03-27T02:51:57.925Z,0.20
2018-03-27T02:54:26.216Z,0.20
2018-03-27T02:56:54.536Z,0.20
2018-03-27T02:59:22.832Z,0.20
2018-03-27T03:01:51.156Z,0.20
2018-03-27T03:04:19.448Z,0.20
2018-03-27T03:06:47.736Z,0.20
2018-03-27T03:09:16.047Z,0.10
2018-03-27T03:11:44.342Z,0.10
2018-03-27T03:14:11.910Z,0.10
2018-03-27T03:16:40.199Z,0.00
2018-03-27T03:19:08.575Z,0.00
2018-03-27T03:21:36.820Z,0.00
2018-03-27T03:24:05.137Z,-0.10
2018-03-27T03:26:33.448Z,-0.10
2018-03-27T03:29:01.777Z,0.00
2018-03-27T03:31:30.078Z,-0.10
2018-03-27T03:33:58.392Z,0.00
2018-03-27T03:36:26.688Z,-0.10
2018-03-27T03:38:55.007Z,-0.10
2018-03-27T03:41:23.307Z,-0.10
2018-03-27T03:43:51.633Z,-0.10
2018-03-27T03:46:19.924Z,-0.10
2018-03-27T03:48:48.244Z,-0.10
2018-03-27T03:51:16.539Z,-0.20
2018-03-27T03:53:44.860Z,-0.20
2018-03-27T03:56:13.154Z,-0.20
2018-03-27T03:58:41.465Z,-0.20
2018-03-27T04:01:09.777Z,-0.20
2018-03-27T04:03:38.092Z,-0.20
2018-03-27T04:06:06.389Z,-0.30
2018-03-27T04:08:34.708Z,-0.30
2018-03-27T04:11:03.027Z,-0.30
2018-03-27T04:13:31.344Z,-0.30
2018-03-27T04:15:59.641Z,-0.30
2018-03-27T04:18:27.953Z,-0.20
2018-03-27T04:20:56.248Z,-0.20
2018-03-27T04:23:24.577Z,-0.10
2018-03-27T04:25:52.881Z,-0.10
2018-03-27T04:28:21.200Z,0.00
2018-03-27T04:30:49.497Z,0.00
2018-03-27T04:33:17.813Z,0.00
2018-03-27T04:35:46.096Z,0.10
2018-03-27T04:38:14.405Z,0.10
2018-03-27T04:40:42.700Z,0.10
2018-03-27T04:43:11.045Z,0.10
2018-03-27T04:45:39.340Z,0.10
2018-03-27T04:48:07.636Z,0.10
2018-03-27T04:50:35.947Z,0.10
2018-03-27T04:53:04.240Z,0.10
2018-03-27T04:55:32.549Z,0.10
2018-03-27T04:58:00.840Z,0.20
2018-03-27T05:00:29.152Z,0.10
2018-03-27T05:02:57.439Z,0.20
2018-03-27T05:05:25.757Z,0.20
2018-03-27T05:07:54.047Z,0.20
2018-03-27T05:10:22.358Z,0.20
2018-03-27T05:12:50.649Z,0.20
2018-03-27T05:15:18.960Z,0.20
2018-03-27T05:17:47.248Z,0.30
2018-03-27T05:20:15.565Z,0.30
2018-03-27T05:22:43.865Z,0.30
2018-03-27T05:25:12.180Z,0.40
2018-03-27T05:27:40.468Z,0.50
2018-03-27T05:30:08.781Z,0.50
2018-03-27T05:32:37.083Z,0.60
2018-03-27T05:35:05.392Z,0.60
2018-03-27T05:37:33.680Z,0.70
2018-03-27T05:40:01.997Z,0.80
2018-03-27T05:42:30.296Z,0.80
2018-03-27T05:44:58.608Z,0.90
2018-03-27T05:47:26.896Z,1.00
2018-03-27T05:49:55.212Z,1.10
2018-03-27T05:52:23.509Z,1.10
2018-03-27T05:54:51.834Z,1.20
2018-03-27T05:57:20.123Z,1.20
2018-03-27T05:59:48.435Z,1.20
2018-03-27T06:02:16.725Z,1.30
2018-03-27T06:04:45.044Z,1.30
2018-03-27T06:07:13.336Z,1.40
2018-03-27T06:09:41.690Z,1.40
2018-03-27T06:12:09.980Z,1.50
2018-03-27T06:14:38.284Z,1.50
2018-03-27T06:17:06.579Z,1.60
2018-03-27T06:19:34.891Z,1.70
2018-03-27T06:22:03.189Z,1.80
2018-03-27T06:24:31.500Z,1.80
2018-03-27T06:26:59.788Z,1.90
2018-03-27T06:29:28.077Z,2.00
2018-03-27T06:31:56.396Z,2.10
2018-03-27T06:34:24.680Z,2.20
2018-03-27T06:36:52.998Z,2.30
2018-03-27T06:39:21.298Z,2.40
2018-03-27T06:41:49.604Z,2.40
2018-03-27T06:44:17.908Z,2.50
2018-03-27T06:46:46.216Z,2.60
2018-03-27T06:49:14.505Z,2.60
2018-03-27T06:51:42.811Z,2.60
2018-03-27T06:54:11.100Z,2.70
2018-03-27T06:56:39.420Z,2.60
2018-03-27T06:59:07.750Z,2.70
2018-03-27T07:01:36.087Z,2.70
2018-03-27T07:04:04.384Z,2.80
2018-03-27T07:06:32.696Z,2.90
2018-03-27T07:09:00.838Z,2.90
2018-03-27T07:11:29.183Z,3.10
2018-03-27T07:13:57.483Z,3.30
2018-03-27T07:16:25.819Z,3.50
2018-03-27T07:18:54.112Z,3.60
2018-03-27T07:21:22.425Z,3.80
2018-03-27T07:23:50.722Z,3.90
2018-03-27T07:26:19.041Z,3.90
2018-03-27T07:28:47.324Z,4.10
2018-03-27T07:31:15.636Z,4.30
2018-03-27T07:33:43.928Z,4.60
2018-03-27T07:36:12.249Z,4.70
2018-03-27T07:38:40.548Z,4.90
2018-03-27T07:41:08.868Z,5.00
2018-03-27T07:43:37.175Z,5.10
2018-03-27T07:46:05.496Z,5.20
2018-03-27T07:48:33.783Z,5.20
2018-03-27T07:51:02.100Z,5.30
2018-03-27T07:53:30.410Z,5.30
2018-03-27T07:55:58.745Z,5.40
2018-03-27T07:58:27.031Z,5.60
2018-03-27T08:00:55.344Z,5.80
2018-03-27T08:03:23.641Z,6.10
2018-03-27T08:05:51.956Z,6.30
2018-03-27T08:08:20.256Z,6.50
2018-03-27T08:10:48.572Z,6.70
2018-03-27T08:13:16.887Z,6.80
2018-03-27T08:15:45.189Z,6.90
2018-03-27T08:18:13.505Z,7.20
2018-03-27T08:20:41.816Z,7.50
2018-03-27T08:23:10.137Z,7.80
2018-03-27T08:25:38.436Z,7.90
2018-03-27T08:28:06.763Z,8.00
2018-03-27T08:30:35.067Z,8.10
2018-03-27T08:33:03.384Z,8.10
2018-03-27T08:35:31.688Z,8.10
2018-03-27T08:38:00.004Z,8.20
2018-03-27T08:40:28.313Z,8.30
2018-03-27T08:42:56.637Z,8.60
2018-03-27T08:45:24.946Z,8.90
2018-03-27T08:47:53.268Z,9.10
2018-03-27T08:50:21.564Z,9.10
2018-03-27T08:52:49.884Z,9.10
2018-03-27T08:55:18.193Z,9.00
2018-03-27T08:57:46.513Z,9.00
2018-03-27T09:00:14.805Z,9.30
2018-03-27T09:02:43.127Z,9.60
2018-03-27T09:05:11.464Z,9.90
2018-03-27T09:07:39.787Z,10.20
2018-03-27T09:10:08.086Z,10.40
2018-03-27T09:12:35.642Z,10.40
2018-03-27T09:15:03.946Z,10.60
2018-03-27T09:17:32.260Z,10.60
2018-03-27T09:20:00.555Z,10.60
2018-03-27T09:22:28.888Z,10.70
2018-03-27T09:25:02.804Z,10.90
2018-03-27T09:27:31.124Z,11.10
2018-03-27T09:29:59.420Z,11.20
2018-03-27T09:32:27.737Z,11.30
2018-03-27T09:34:56.041Z,11.30
2018-03-27T09:37:23.600Z,11.30
2018-03-27T09:39:51.899Z,11.20
2018-03-27T09:42:20.220Z,11.40
2018-03-27T09:44:48.520Z,11.70
2018-03-27T09:47:16.839Z,11.90
2018-03-27T09:49:45.140Z,12.10
2018-03-27T09:52:13.498Z,12.20
2018-03-27T09:54:41.941Z,12.50
2018-03-27T09:57:10.309Z,12.80
2018-03-27T09:59:38.623Z,12.90
2018-03-27T10:02:06.920Z,12.90
2018-03-27T10:04:35.240Z,12.80
2018-03-27T10:07:03.545Z,12.90
2018-03-27T10:09:31.864Z,13.00
2018-03-27T10:12:00.165Z,13.20
2018-03-27T10:14:28.501Z,13.20
2018-03-27T10:16:56.796Z,13.10
2018-03-27T10:19:25.115Z,12.90
2018-03-27T10:21:53.438Z,12.80
2018-03-27T10:24:21.759Z,12.70
2018-03-27T10:26:50.064Z,12.70
2018-03-27T10:29:18.380Z,12.60
2018-03-27T10:31:46.684Z,12.60
2018-03-27T10:34:15.065Z,12.60
2018-03-27T10:36:43.324Z,12.70
2018-03-27T10:39:11.653Z,12.90
2018-03-27T10:41:39.947Z,13.20
2018-03-27T10:44:08.276Z,13.20
2018-03-27T10:46:36.575Z,13.00
2018-03-27T10:49:04.896Z,12.90
2018-03-27T10:51:33.200Z,12.70
2018-03-27T10:54:01.521Z,12.60
2018-03-27T10:56:29.821Z,12.40
2018-03-27T10:58:58.141Z,12.30
2018-03-27T11:01:26.437Z,12.30
2018-03-27T11:03:54.796Z,12.40
2018-03-27T11:06:23.072Z,12.50
2018-03-27T11:08:51.397Z,12.50
2018-03-27T11:11:19.708Z,12.60
2018-03-27T11:13:48.030Z,12.60
2018-03-27T11:16:16.320Z,12.60
2018-03-27T11:18:44.644Z,12.60
2018-03-27T11:21:12.952Z,12.60
2018-03-27T11:23:41.277Z,12.50
2018-03-27T11:26:09.588Z,12.60
2018-03-27T11:28:37.908Z,12.70
2018-03-27T11:31:06.212Z,12.80
2018-03-27T11:33:34.528Z,12.60
2018-03-27T11:36:02.853Z,12.40
2018-03-27T11:38:31.148Z,12.40
2018-03-27T11:40:59.474Z,12.30
2018-03-27T11:43:27.770Z,12.30
2018-03-27T11:45:56.124Z,12.30
2018-03-27T11:48:24.427Z,12.10
2018-03-27T11:50:52.785Z,12.00
2018-03-27T11:53:21.091Z,11.90
2018-03-27T11:55:49.404Z,11.90
2018-03-27T11:58:17.701Z,12.00
2018-03-27T12:00:46.024Z,11.80
2018-03-27T12:03:14.326Z,11.60
2018-03-27T12:05:42.640Z,11.50
2018-03-27T12:08:10.942Z,11.40
2018-03-27T12:10:39.292Z,11.10
2018-03-27T12:13:07.596Z,11.00
2018-03-27T12:15:35.917Z,11.20
2018-03-27T12:18:04.220Z,11.20
2018-03-27T12:20:32.550Z,11.20
2018-03-27T12:23:00.856Z,11.20
2018-03-27T12:25:29.181Z,11.10
2018-03-27T12:27:57.478Z,10.70
2018-03-27T12:30:25.800Z,10.50
2018-03-27T12:32:54.096Z,10.40
2018-03-27T12:35:22.420Z,10.20
2018-03-27T12:37:50.713Z,9.90
2018-03-27T12:40:19.031Z,9.80
2018-03-27T12:42:47.324Z,9.70
2018-03-27T12:45:15.705Z,9.70
2018-03-27T12:47:44.001Z,9.70
2018-03-27T12:50:12.328Z,9.70
2018-03-27T12:52:40.629Z,9.80
2018-03-27T12:55:08.947Z,10.00
2018-03-27T12:57:37.240Z,10.10
2018-03-27T13:00:05.569Z,10.20
2018-03-27T13:02:33.877Z,10.20
2018-03-27T13:05:02.197Z,10.00
2018-03-27T13:07:30.492Z,9.90
2018-03-27T13:09:58.805Z,9.90
2018-03-27T13:12:27.100Z,10.00
2018-03-27T13:14:55.428Z,10.00
2018-03-27T13:17:23.736Z,10.10
2018-03-27T13:19:52.908Z,10.20
2018-03-27T13:22:21.208Z,10.30
2018-03-27T13:24:49.508Z,10.30
2018-03-27T13:27:17.837Z,10.20
2018-03-27T13:29:46.133Z,10.10
2018-03-27T13:32:14.529Z,9.80
2018-03-27T13:34:42.772Z,9.60
2018-03-27T13:37:11.106Z,9.50
2018-03-27T13:39:39.405Z,9.50
2018-03-27T13:42:07.724Z,9.60
2018-03-27T13:44:36.016Z,9.50
2018-03-27T13:47:04.336Z,9.50
2018-03-27T13:49:32.635Z,9.40
2018-03-27T13:52:00.956Z,9.40
2018-03-27T13:54:29.260Z,9.30
2018-03-27T13:56:56.814Z,9.30
2018-03-27T13:59:25.116Z,9.40
2018-03-27T14:01:53.436Z,9.40
2018-03-27T14:04:21.742Z,9.40
2018-03-27T14:06:50.063Z,9.50
2018-03-27T14:09:18.389Z,9.50
2018-03-27T14:11:46.692Z,9.40
2018-03-27T14:14:14.984Z,9.40
2018-03-27T14:16:43.308Z,9.30
2018-03-27T14:19:11.608Z,9.30
2018-03-27T14:21:39.940Z,9.30
2018-03-27T14:24:08.242Z,9.20
2018-03-27T14:26:36.552Z,9.10
2018-03-27T14:29:04.845Z,9.00
2018-03-27T14:31:33.159Z,8.80
2018-03-27T14:34:01.452Z,8.60
2018-03-27T14:36:29.765Z,8.50
2018-03-27T14:38:58.052Z,8.40
2018-03-27T14:41:26.363Z,8.30
2018-03-27T14:43:54.676Z,8.10
2018-03-27T14:46:22.995Z,8.00
2018-03-27T14:48:51.288Z,7.90
2018-03-27T14:51:19.611Z,7.80
2018-03-27T14:53:47.897Z,7.70
2018-03-27T14:56:16.217Z,7.70
2018-03-27T14:58:44.504Z,7.60
2018-03-27T15:01:12.837Z,7.60
2018-03-27T15:03:41.131Z,7.60
2018-03-27T15:06:09.451Z,7.70
2018-03-27T15:08:37.768Z,7.70
2018-03-27T15:11:06.068Z,7.60
2018-03-27T15:13:34.403Z,7.70
2018-03-27T15:16:02.717Z,7.70
2018-03-27T15:18:31.052Z,7.80
2018-03-27T15:20:59.365Z,7.90
2018-03-27T15:23:26.925Z,7.90
2018-03-27T15:25:55.225Z,8.00
2018-03-27T15:28:23.550Z,8.20
2018-03-27T15:30:51.854Z,8.20
2018-03-27T15:33:20.173Z,8.20
2018-03-27T15:35:48.477Z,8.20
2018-03-27T15:38:16.791Z,8.20
2018-03-27T15:40:45.088Z,8.10
2018-03-27T15:43:13.401Z,8.10
2018-03-27T15:45:41.690Z,8.00
2018-03-27T15:48:10.008Z,8.00
2018-03-27T15:50:38.305Z,7.90
2018-03-27T15:53:06.616Z,7.90
2018-03-27T15:55:34.924Z,7.90
2018-03-27T15:58:03.237Z,7.90
2018-03-27T16:00:31.528Z,7.90
2018-03-27T16:02:59.861Z,7.80
2018-03-27T16:05:28.168Z,7.80
2018-03-27T16:07:56.492Z,7.70
2018-03-27T16:10:24.791Z,7.70
2018-03-27T16:12:53.109Z,7.70
2018-03-27T16:15:21.405Z,7.70
2018-03-27T16:17:49.729Z,7.70
2018-03-27T16:20:18.020Z,7.70
2018-03-27T16:22:46.331Z,7.60
2018-03-27T16:25:14.625Z,7.50
2018-03-27T16:27:42.948Z,7.50
2018-03-27T16:30:11.236Z,7.40
2018-03-27T16:32:39.557Z,7.40
2018-03-27T16:35:07.848Z,7.40
2018-03-27T16:37:36.164Z,7.30
2018-03-27T16:40:04.466Z,7.30
2018-03-27T16:42:32.793Z,7.20
2018-03-27T16:45:01.102Z,7.20
2018-03-27T16:47:29.448Z,7.20
2018-03-27T16:49:57.751Z,7.10
2018-03-27T16:52:26.044Z,7.00
2018-03-27T16:54:54.364Z,7.00
2018-03-27T16:57:22.656Z,7.00
2018-03-27T16:59:50.963Z,6.90
2018-03-27T17:02:20.008Z,6.90
2018-03-27T17:04:48.328Z,6.90
2018-03-27T17:07:16.625Z,6.90
2018-03-27T17:09:56.843Z,6.90
2018-03-27T17:12:25.128Z,6.80
2018-03-27T17:15:06.184Z,6.80
2018-03-27T17:17:34.476Z,6.70
2018-03-27T17:20:02.793Z,6.60
2018-03-27T17:22:31.080Z,6.60
2018-03-27T17:24:59.396Z,6.50
2018-03-27T17:27:27.703Z,6.50
2018-03-27T17:29:56.029Z,6.40
2018-03-27T17:32:24.328Z,6.30
2018-03-27T17:34:52.640Z,6.30
2018-03-27T17:37:20.945Z,6.40
2018-03-27T17:39:49.248Z,6.30
2018-03-27T17:42:17.545Z,6.40
2018-03-27T17:44:45.862Z,6.40
2018-03-27T17:47:13.390Z,6.40
2018-03-27T17:49:41.704Z,6.30
2018-03-27T17:52:10.004Z,6.40
2018-03-27T17:54:38.320Z,6.40
2018-03-27T17:57:06.618Z,6.40
2018-03-27T17:59:34.936Z,6.40
2018-03-27T18:02:03.234Z,6.50
2018-03-27T18:04:31.552Z,6.50
2018-03-27T18:06:59.848Z,6.50
2018-03-27T18:09:28.168Z,6.50
2018-03-27T18:11:56.463Z,6.50
2018-03-27T18:14:24.778Z,6.50
2018-03-27T18:16:53.087Z,6.50
2018-03-27T18:19:21.404Z,6.50
2018-03-27T18:21:49.703Z,6.50
2018-03-27T18:24:18.024Z,6.50
2018-03-27T18:26:46.316Z,6.40
2018-03-27T18:29:14.631Z,6.40
2018-03-27T18:31:42.932Z,6.40
2018-03-27T18:34:11.255Z,6.40
2018-03-27T18:36:39.557Z,6.50
2018-03-27T18:39:07.876Z,6.50
2018-03-27T18:41:36.172Z,6.50
2018-03-27T18:44:04.483Z,6.50
2018-03-27T18:46:32.778Z,6.50
2018-03-27T18:49:01.106Z,6.50
2018-03-27T18:51:29.411Z,6.50
2018-03-27T18:53:57.708Z,6.50
2018-03-27T18:56:26.024Z,6.50
2018-03-27T18:58:54.344Z,6.50
2018-03-27T19:01:22.665Z,6.60
2018-03-27T19:03:50.969Z,6.60
2018-03-27T19:06:19.280Z,6.60
2018-03-27T19:08:47.578Z,6.60
2018-03-27T19:11:15.903Z,6.60
2018-03-27T19:13:43.431Z,6.50
2018-03-27T19:16:11.742Z,6.60
2018-03-27T19:18:40.032Z,6.60
2018-03-27T19:21:08.345Z,6.60
2018-03-27T19:23:36.639Z,6.60
2018-03-27T19:26:04.961Z,6.60
2018-03-27T19:28:33.256Z,6.60
2018-03-27T19:31:01.570Z,6.70
2018-03-27T19:33:29.881Z,6.70
2018-03-27T19:35:58.192Z,6.60
2018-03-27T19:38:26.492Z,6.70
2018-03-27T19:40:54.828Z,6.70
2018-03-27T19:43:23.124Z,6.70
2018-03-27T19:45:51.435Z,6.70
2018-03-27T19:48:19.730Z,6.70
2018-03-27T19:50:48.056Z,6.70
2018-03-27T19:53:16.361Z,6.70
2018-03-27T19:55:44.685Z,6.70
2018-03-27T19:58:12.985Z,6.70
2018-03-27T20:00:41.303Z,6.80
2018-03-27T20:03:09.592Z,6.80
2018-03-27T20:05:37.909Z,6.80
2018-03-27T20:08:06.200Z,6.80
2018-03-27T20:10:34.512Z,6.80
2018-03-27T20:13:02.807Z,6.80
2018-03-27T20:15:41.702Z,6.80
2018-03-27T20:17:59.433Z,6.80
2018-03-27T20:20:27.743Z,6.80
2018-03-27T20:22:56.041Z,6.90
2018-03-27T20:25:24.361Z,6.90
2018-03-27T20:27:52.660Z,6.90
2018-03-27T20:30:20.996Z,6.90
2018-03-27T20:32:49.288Z,6.90
2018-03-27T20:35:16.836Z,6.90
2018-03-27T20:37:44.388Z,6.90
2018-03-27T20:40:12.689Z,6.90
2018-03-27T20:42:41.034Z,6.90
2018-03-27T20:45:09.338Z,6.90
2018-03-27T20:47:37.669Z,6.90
2018-03-27T20:50:05.968Z,6.90
2018-03-27T20:52:34.284Z,6.90
2018-03-27T20:55:02.577Z,6.90
2018-03-27T20:57:30.888Z,6.90
2018-03-27T20:59:59.175Z,6.90
2018-03-27T21:02:27.503Z,6.90
2018-03-27T21:04:55.800Z,6.90
2018-03-27T21:07:24.112Z,6.90
2018-03-27T21:09:52.412Z,7.00
2018-03-27T21:12:20.736Z,7.00
2018-03-27T21:14:49.031Z,7.00
2018-03-27T21:17:16.575Z,7.00
2018-03-27T21:19:44.870Z,7.00
2018-03-27T21:22:13.184Z,7.10
2018-03-27T21:24:41.524Z,7.00
2018-03-27T21:27:09.847Z,7.10
2018-03-27T21:29:38.148Z,7.10
2018-03-27T21:32:06.467Z,7.10
2018-03-27T21:34:34.768Z,7.10
2018-03-27T21:37:03.092Z,7.10
2018-03-27T21:39:31.401Z,7.20
2018-03-27T21:41:59.729Z,7.20
2018-03-27T21:44:28.037Z,7.20
2018-03-27T21:46:56.364Z,7.20
2018-03-27T21:49:24.653Z,7.20
2018-03-27T21:51:52.984Z,7.20
2018-03-27T21:54:21.294Z,7.20
2018-03-27T21:56:48.853Z,7.20
2018-03-27T21:59:21.980Z,7.30
2018-03-27T22:01:50.299Z,7.30
2018-03-27T22:04:18.593Z,7.30
2018-03-27T22:06:46.144Z,7.30
2018-03-27T22:09:14.440Z,7.30
2018-03-27T22:11:42.771Z,7.30
2018-03-27T22:14:11.064Z,7.30
2018-03-27T22:16:39.392Z,7.30
2018-03-27T22:19:07.688Z,7.30
2018-03-27T22:21:35.984Z,7.30
2018-03-27T22:24:04.300Z,7.40
2018-03-27T22:26:32.600Z,7.40
2018-03-27T22:29:01.217Z,7.40
2018-03-27T22:31:29.519Z,7.50
2018-03-27T22:33:57.837Z,7.50
2018-03-27T22:36:26.128Z,7.50
2018-03-27T22:38:54.449Z,7.50
2018-03-27T22:41:22.749Z,7.60
2018-03-27T22:43:51.067Z,7.60
2018-03-27T22:46:19.365Z,7.60
2018-03-27T22:48:47.684Z,7.60
2018-03-27T22:51:15.972Z,7.60
2018-03-27T22:53:44.279Z,7.60
2018-03-27T22:56:11.847Z,7.60
2018-03-27T22:58:40.169Z,7.60
2018-03-27T23:01:08.472Z,7.60
2018-03-27T23:03:36.794Z,7.70
2018-03-27T23:06:05.091Z,7.70
2018-03-27T23:08:33.420Z,7.60
2018-03-27T23:11:01.717Z,7.70
2018-03-27T23:13:30.038Z,7.70
2018-03-27T23:15:58.337Z,7.70
2018-03-27T23:18:26.660Z,7.70
2018-03-27T23:20:54.971Z,7.80
2018-03-27T23:23:23.286Z,7.80
2018-03-27T23:25:51.580Z,7.80
2018-03-27T23:28:19.884Z,7.80
2018-03-27T23:30:48.181Z,7.70
2018-03-27T23:33:16.496Z,7.80
2018-03-27T23:35:44.792Z,7.80
2018-03-27T23:38:13.120Z,7.80
2018-03-27T23:40:41.420Z,7.80
2018-03-27T23:43:09.746Z,7.90
2018-03-27T23:45:38.048Z,7.80
2018-03-27T23:48:06.376Z,7.90
2018-03-27T23:50:34.667Z,7.90
2018-03-27T23:53:02.995Z,7.90
2018-03-27T23:55:31.293Z,8.00
2018-03-27T23:57:59.602Z,8.00
